sensor_id;sensor_type;location;lat;lon;timestamp;P1;durP1;ratioP1;P2;durP2;ratioP2
75885;SDS011;64561;44.018;10.144;2023-01-08T00:00:17;21.42;;;13.75;;
75885;SDS011;64561;44.018;10.144;2023-01-08T00:02:45;17.50;;;13.32;;
75885;SDS011;64561;44.018;10.144;2023-01-08T00:05:12;18.73;;;12.40;;
75885;SDS011;64561;44.018;10.144;2023-01-08T00:07:39;22.08;;;12.82;;
75885;SDS011;64561;44.018;10.144;2023-01-08T00:10:05;19.25;;;12.45;;
75885;SDS011;64561;44.018;10.144;2023-01-08T00:12:33;16.20;;;10.27;;
75885;SDS011;64561;44.018;10.144;2023-01-08T00:15:00;19.23;;;12.10;;
75885;SDS011;64561;44.018;10.144;2023-01-08T00:17:27;18.15;;;10.88;;
75885;SDS011;64561;44.018;10.144;2023-01-08T00:19:55;17.85;;;11.32;;
75885;SDS011;64561;44.018;10.144;2023-01-08T00:22:22;13.65;;;9.38;;
75885;SDS011;64561;44.018;10.144;2023-01-08T00:24:49;12.52;;;9.13;;
75885;SDS011;64561;44.018;10.144;2023-01-08T00:27:16;17.05;;;10.85;;
75885;SDS011;64561;44.018;10.144;2023-01-08T00:29:43;18.25;;;11.23;;
75885;SDS011;64561;44.018;10.144;2023-01-08T00:32:10;19.70;;;12.27;;
75885;SDS011;64561;44.018;10.144;2023-01-08T00:34:37;15.73;;;9.98;;
75885;SDS011;64561;44.018;10.144;2023-01-08T00:37:04;14.57;;;10.23;;
75885;SDS011;64561;44.018;10.144;2023-01-08T00:39:33;9.45;;;5.50;;
75885;SDS011;64561;44.018;10.144;2023-01-08T00:42:00;9.63;;;7.13;;
75885;SDS011;64561;44.018;10.144;2023-01-08T00:44:27;7.35;;;5.38;;
75885;SDS011;64561;44.018;10.144;2023-01-08T00:46:54;9.80;;;6.22;;
75885;SDS011;64561;44.018;10.144;2023-01-08T00:49:20;10.50;;;6.18;;
75885;SDS011;64561;44.018;10.144;2023-01-08T00:51:47;10.50;;;6.07;;
75885;SDS011;64561;44.018;10.144;2023-01-08T00:54:14;10.68;;;6.28;;
75885;SDS011;64561;44.018;10.144;2023-01-08T00:56:41;14.52;;;8.52;;
75885;SDS011;64561;44.018;10.144;2023-01-08T00:59:23;12.15;;;7.55;;
75885;SDS011;64561;44.018;10.144;2023-01-08T01:01:50;11.32;;;8.00;;
75885;SDS011;64561;44.018;10.144;2023-01-08T01:04:23;11.73;;;7.55;;
75885;SDS011;64561;44.018;10.144;2023-01-08T01:06:51;11.25;;;6.75;;
75885;SDS011;64561;44.018;10.144;2023-01-08T01:09:18;11.93;;;7.97;;
75885;SDS011;64561;44.018;10.144;2023-01-08T01:11:45;16.23;;;9.98;;
75885;SDS011;64561;44.018;10.144;2023-01-08T01:14:12;10.65;;;7.75;;
75885;SDS011;64561;44.018;10.144;2023-01-08T01:16:39;15.55;;;10.00;;
75885;SDS011;64561;44.018;10.144;2023-01-08T01:19:07;9.25;;;7.60;;
75885;SDS011;64561;44.018;10.144;2023-01-08T01:21:34;13.75;;;9.25;;
75885;SDS011;64561;44.018;10.144;2023-01-08T01:24:02;14.82;;;9.05;;
75885;SDS011;64561;44.018;10.144;2023-01-08T01:26:32;13.38;;;8.63;;
75885;SDS011;64561;44.018;10.144;2023-01-08T01:29:03;14.65;;;8.57;;
75885;SDS011;64561;44.018;10.144;2023-01-08T01:31:30;13.55;;;9.13;;
75885;SDS011;64561;44.018;10.144;2023-01-08T01:33:58;14.25;;;9.18;;
75885;SDS011;64561;44.018;10.144;2023-01-08T01:36:25;10.27;;;7.05;;
75885;SDS011;64561;44.018;10.144;2023-01-08T01:38:53;10.65;;;6.97;;
75885;SDS011;64561;44.018;10.144;2023-01-08T01:43:51;9.93;;;6.43;;
75885;SDS011;64561;44.018;10.144;2023-01-08T01:46:21;12.20;;;6.97;;
75885;SDS011;64561;44.018;10.144;2023-01-08T01:48:54;10.63;;;6.13;;
75885;SDS011;64561;44.018;10.144;2023-01-08T01:51:26;9.13;;;5.78;;
75885;SDS011;64561;44.018;10.144;2023-01-08T01:53:57;9.10;;;6.10;;
75885;SDS011;64561;44.018;10.144;2023-01-08T01:56:26;9.02;;;5.47;;
75885;SDS011;64561;44.018;10.144;2023-01-08T01:58:54;9.27;;;5.15;;
75885;SDS011;64561;44.018;10.144;2023-01-08T02:01:24;9.80;;;5.68;;
75885;SDS011;64561;44.018;10.144;2023-01-08T02:03:52;5.53;;;3.90;;
75885;SDS011;64561;44.018;10.144;2023-01-08T02:06:32;7.32;;;4.57;;
75885;SDS011;64561;44.018;10.144;2023-01-08T02:09:22;8.77;;;4.80;;
75885;SDS011;64561;44.018;10.144;2023-01-08T02:18:19;8.60;;;4.20;;
75885;SDS011;64561;44.018;10.144;2023-01-08T02:21:06;7.45;;;4.43;;
75885;SDS011;64561;44.018;10.144;2023-01-08T02:26:50;6.72;;;3.88;;
75885;SDS011;64561;44.018;10.144;2023-01-08T02:29:20;6.13;;;3.35;;
75885;SDS011;64561;44.018;10.144;2023-01-08T02:31:51;6.30;;;3.55;;
75885;SDS011;64561;44.018;10.144;2023-01-08T02:34:17;7.13;;;4.28;;
75885;SDS011;64561;44.018;10.144;2023-01-08T02:36:51;8.15;;;4.13;;
75885;SDS011;64561;44.018;10.144;2023-01-08T02:45:25;6.68;;;4.07;;
75885;SDS011;64561;44.018;10.144;2023-01-08T02:50:43;8.07;;;5.35;;
75885;SDS011;64561;44.018;10.144;2023-01-08T02:53:24;5.22;;;3.90;;
75885;SDS011;64561;44.018;10.144;2023-01-08T02:55:55;5.15;;;3.28;;
75885;SDS011;64561;44.018;10.144;2023-01-08T02:58:26;7.97;;;3.50;;
75885;SDS011;64561;44.018;10.144;2023-01-08T03:00:58;4.00;;;2.80;;
75885;SDS011;64561;44.018;10.144;2023-01-08T03:03:31;5.22;;;2.50;;
75885;SDS011;64561;44.018;10.144;2023-01-08T03:06:01;5.35;;;2.60;;
75885;SDS011;64561;44.018;10.144;2023-01-08T03:08:35;4.97;;;2.20;;
75885;SDS011;64561;44.018;10.144;2023-01-08T03:11:10;4.00;;;2.15;;
75885;SDS011;64561;44.018;10.144;2023-01-08T03:16:20;3.03;;;2.00;;
75885;SDS011;64561;44.018;10.144;2023-01-08T03:18:58;5.65;;;2.25;;
75885;SDS011;64561;44.018;10.144;2023-01-08T03:24:02;5.18;;;2.45;;
75885;SDS011;64561;44.018;10.144;2023-01-08T03:26:30;4.75;;;2.30;;
75885;SDS011;64561;44.018;10.144;2023-01-08T03:28:58;9.45;;;3.08;;
75885;SDS011;64561;44.018;10.144;2023-01-08T03:31:28;10.75;;;3.13;;
75885;SDS011;64561;44.018;10.144;2023-01-08T03:33:55;4.32;;;1.95;;
75885;SDS011;64561;44.018;10.144;2023-01-08T03:36:25;2.15;;;1.48;;
75885;SDS011;64561;44.018;10.144;2023-01-08T03:39:11;4.38;;;1.75;;
75885;SDS011;64561;44.018;10.144;2023-01-08T03:41:42;2.60;;;1.50;;
75885;SDS011;64561;44.018;10.144;2023-01-08T03:44:09;4.45;;;2.15;;
75885;SDS011;64561;44.018;10.144;2023-01-08T03:46:37;3.60;;;1.90;;
75885;SDS011;64561;44.018;10.144;2023-01-08T03:49:07;3.00;;;2.05;;
75885;SDS011;64561;44.018;10.144;2023-01-08T03:51:41;4.40;;;1.60;;
75885;SDS011;64561;44.018;10.144;2023-01-08T03:54:25;2.72;;;1.60;;
75885;SDS011;64561;44.018;10.144;2023-01-08T03:57:06;3.30;;;1.63;;
75885;SDS011;64561;44.018;10.144;2023-01-08T03:59:33;4.57;;;1.60;;
75885;SDS011;64561;44.018;10.144;2023-01-08T04:02:00;3.72;;;1.75;;
75885;SDS011;64561;44.018;10.144;2023-01-08T04:04:30;1.98;;;1.30;;
75885;SDS011;64561;44.018;10.144;2023-01-08T04:06:56;4.75;;;1.85;;
75885;SDS011;64561;44.018;10.144;2023-01-08T04:09:23;3.85;;;1.88;;
75885;SDS011;64561;44.018;10.144;2023-01-08T04:11:50;3.40;;;1.67;;
75885;SDS011;64561;44.018;10.144;2023-01-08T04:14:17;4.10;;;1.63;;
75885;SDS011;64561;44.018;10.144;2023-01-08T04:16:44;3.90;;;1.83;;
75885;SDS011;64561;44.018;10.144;2023-01-08T04:19:11;2.13;;;1.70;;
75885;SDS011;64561;44.018;10.144;2023-01-08T04:21:38;2.53;;;1.48;;
75885;SDS011;64561;44.018;10.144;2023-01-08T04:24:06;6.43;;;2.47;;
75885;SDS011;64561;44.018;10.144;2023-01-08T04:26:33;3.33;;;2.08;;
75885;SDS011;64561;44.018;10.144;2023-01-08T04:29:03;3.33;;;2.05;;
75885;SDS011;64561;44.018;10.144;2023-01-08T04:31:30;3.80;;;2.13;;
75885;SDS011;64561;44.018;10.144;2023-01-08T04:33:57;3.90;;;1.67;;
75885;SDS011;64561;44.018;10.144;2023-01-08T04:36:24;2.85;;;1.60;;
75885;SDS011;64561;44.018;10.144;2023-01-08T04:38:51;4.43;;;2.08;;
75885;SDS011;64561;44.018;10.144;2023-01-08T04:41:17;3.92;;;1.80;;
75885;SDS011;64561;44.018;10.144;2023-01-08T04:43:44;2.65;;;1.83;;
75885;SDS011;64561;44.018;10.144;2023-01-08T04:46:11;3.97;;;1.88;;
75885;SDS011;64561;44.018;10.144;2023-01-08T04:48:38;5.18;;;2.83;;
75885;SDS011;64561;44.018;10.144;2023-01-08T04:51:05;7.13;;;3.00;;
75885;SDS011;64561;44.018;10.144;2023-01-08T04:53:33;5.85;;;2.97;;
75885;SDS011;64561;44.018;10.144;2023-01-08T04:56:06;5.20;;;2.80;;
75885;SDS011;64561;44.018;10.144;2023-01-08T04:58:34;6.28;;;3.13;;
75885;SDS011;64561;44.018;10.144;2023-01-08T05:01:09;5.90;;;3.50;;
75885;SDS011;64561;44.018;10.144;2023-01-08T05:03:36;6.80;;;3.95;;
75885;SDS011;64561;44.018;10.144;2023-01-08T05:06:04;5.47;;;3.90;;
75885;SDS011;64561;44.018;10.144;2023-01-08T05:08:31;8.00;;;3.10;;
75885;SDS011;64561;44.018;10.144;2023-01-08T05:10:58;5.20;;;3.58;;
75885;SDS011;64561;44.018;10.144;2023-01-08T05:13:26;4.93;;;3.03;;
75885;SDS011;64561;44.018;10.144;2023-01-08T05:15:57;4.65;;;2.75;;
75885;SDS011;64561;44.018;10.144;2023-01-08T05:18:25;5.63;;;3.30;;
75885;SDS011;64561;44.018;10.144;2023-01-08T05:20:52;5.15;;;2.72;;
75885;SDS011;64561;44.018;10.144;2023-01-08T05:23:19;5.28;;;2.53;;
75885;SDS011;64561;44.018;10.144;2023-01-08T05:25:46;5.40;;;2.83;;
75885;SDS011;64561;44.018;10.144;2023-01-08T05:28:13;4.13;;;2.60;;
75885;SDS011;64561;44.018;10.144;2023-01-08T05:30:40;7.47;;;3.70;;
75885;SDS011;64561;44.018;10.144;2023-01-08T05:33:07;9.20;;;2.65;;
75885;SDS011;64561;44.018;10.144;2023-01-08T05:35:34;4.22;;;2.30;;
75885;SDS011;64561;44.018;10.144;2023-01-08T05:38:00;4.28;;;2.80;;
75885;SDS011;64561;44.018;10.144;2023-01-08T05:40:27;5.72;;;2.78;;
75885;SDS011;64561;44.018;10.144;2023-01-08T05:43:00;4.45;;;2.50;;
75885;SDS011;64561;44.018;10.144;2023-01-08T05:45:27;4.75;;;2.42;;
75885;SDS011;64561;44.018;10.144;2023-01-08T05:47:54;4.30;;;2.70;;
75885;SDS011;64561;44.018;10.144;2023-01-08T05:50:21;4.43;;;1.88;;
75885;SDS011;64561;44.018;10.144;2023-01-08T05:52:48;4.45;;;2.05;;
75885;SDS011;64561;44.018;10.144;2023-01-08T05:55:15;3.90;;;2.35;;
75885;SDS011;64561;44.018;10.144;2023-01-08T05:57:43;5.57;;;2.20;;
75885;SDS011;64561;44.018;10.144;2023-01-08T06:00:10;6.75;;;3.20;;
75885;SDS011;64561;44.018;10.144;2023-01-08T06:02:38;5.32;;;2.92;;
75885;SDS011;64561;44.018;10.144;2023-01-08T06:05:05;6.15;;;3.55;;
75885;SDS011;64561;44.018;10.144;2023-01-08T06:07:32;4.53;;;3.13;;
75885;SDS011;64561;44.018;10.144;2023-01-08T06:09:59;5.35;;;2.80;;
75885;SDS011;64561;44.018;10.144;2023-01-08T06:12:26;4.82;;;3.08;;
75885;SDS011;64561;44.018;10.144;2023-01-08T06:14:53;5.55;;;3.00;;
75885;SDS011;64561;44.018;10.144;2023-01-08T06:17:19;6.55;;;4.60;;
75885;SDS011;64561;44.018;10.144;2023-01-08T06:19:46;4.85;;;3.47;;
75885;SDS011;64561;44.018;10.144;2023-01-08T06:22:13;11.05;;;4.40;;
75885;SDS011;64561;44.018;10.144;2023-01-08T06:24:40;6.13;;;4.18;;
75885;SDS011;64561;44.018;10.144;2023-01-08T06:27:07;7.85;;;4.88;;
75885;SDS011;64561;44.018;10.144;2023-01-08T06:29:34;6.35;;;4.22;;
75885;SDS011;64561;44.018;10.144;2023-01-08T06:32:01;7.60;;;4.13;;
75885;SDS011;64561;44.018;10.144;2023-01-08T06:34:28;6.32;;;4.32;;
75885;SDS011;64561;44.018;10.144;2023-01-08T06:36:54;5.95;;;3.92;;
75885;SDS011;64561;44.018;10.144;2023-01-08T06:39:21;6.78;;;3.92;;
75885;SDS011;64561;44.018;10.144;2023-01-08T06:41:48;6.35;;;3.63;;
75885;SDS011;64561;44.018;10.144;2023-01-08T06:44:17;8.40;;;4.13;;
75885;SDS011;64561;44.018;10.144;2023-01-08T06:46:44;10.27;;;4.13;;
75885;SDS011;64561;44.018;10.144;2023-01-08T06:49:12;6.78;;;3.75;;
75885;SDS011;64561;44.018;10.144;2023-01-08T06:51:40;7.95;;;3.90;;
75885;SDS011;64561;44.018;10.144;2023-01-08T06:54:06;5.45;;;3.88;;
75885;SDS011;64561;44.018;10.144;2023-01-08T06:56:33;6.70;;;3.35;;
75885;SDS011;64561;44.018;10.144;2023-01-08T06:59:14;6.03;;;3.65;;
75885;SDS011;64561;44.018;10.144;2023-01-08T07:01:40;4.95;;;3.03;;
75885;SDS011;64561;44.018;10.144;2023-01-08T07:04:08;5.25;;;3.30;;
75885;SDS011;64561;44.018;10.144;2023-01-08T07:06:34;5.68;;;3.45;;
75885;SDS011;64561;44.018;10.144;2023-01-08T07:09:04;7.72;;;3.97;;
75885;SDS011;64561;44.018;10.144;2023-01-08T07:11:32;6.80;;;3.90;;
75885;SDS011;64561;44.018;10.144;2023-01-08T07:13:59;11.05;;;4.20;;
75885;SDS011;64561;44.018;10.144;2023-01-08T07:16:26;8.40;;;3.70;;
75885;SDS011;64561;44.018;10.144;2023-01-08T07:18:53;5.65;;;3.85;;
75885;SDS011;64561;44.018;10.144;2023-01-08T07:21:20;8.85;;;4.03;;
75885;SDS011;64561;44.018;10.144;2023-01-08T07:23:48;8.18;;;4.63;;
75885;SDS011;64561;44.018;10.144;2023-01-08T07:26:15;8.35;;;4.05;;
75885;SDS011;64561;44.018;10.144;2023-01-08T07:28:42;9.30;;;4.13;;
75885;SDS011;64561;44.018;10.144;2023-01-08T07:31:10;9.25;;;4.10;;
75885;SDS011;64561;44.018;10.144;2023-01-08T07:33:37;10.20;;;5.45;;
75885;SDS011;64561;44.018;10.144;2023-01-08T07:36:03;8.20;;;4.65;;
75885;SDS011;64561;44.018;10.144;2023-01-08T07:38:31;8.77;;;4.40;;
75885;SDS011;64561;44.018;10.144;2023-01-08T07:40:57;6.97;;;3.78;;
75885;SDS011;64561;44.018;10.144;2023-01-08T07:43:24;5.95;;;3.50;;
75885;SDS011;64561;44.018;10.144;2023-01-08T07:45:51;7.55;;;4.10;;
75885;SDS011;64561;44.018;10.144;2023-01-08T07:48:18;9.55;;;4.05;;
75885;SDS011;64561;44.018;10.144;2023-01-08T07:50:45;5.38;;;3.42;;
75885;SDS011;64561;44.018;10.144;2023-01-08T07:53:12;6.15;;;4.53;;
75885;SDS011;64561;44.018;10.144;2023-01-08T07:55:42;7.53;;;3.75;;
75885;SDS011;64561;44.018;10.144;2023-01-08T07:58:10;8.00;;;3.70;;
75885;SDS011;64561;44.018;10.144;2023-01-08T08:00:38;9.48;;;4.50;;
75885;SDS011;64561;44.018;10.144;2023-01-08T08:03:06;6.47;;;3.95;;
75885;SDS011;64561;44.018;10.144;2023-01-08T08:05:37;6.30;;;3.40;;
75885;SDS011;64561;44.018;10.144;2023-01-08T08:08:08;7.55;;;3.95;;
75885;SDS011;64561;44.018;10.144;2023-01-08T08:10:36;7.78;;;3.67;;
75885;SDS011;64561;44.018;10.144;2023-01-08T08:13:04;5.00;;;3.58;;
75885;SDS011;64561;44.018;10.144;2023-01-08T08:15:31;5.82;;;3.63;;
75885;SDS011;64561;44.018;10.144;2023-01-08T08:17:59;7.03;;;3.97;;
75885;SDS011;64561;44.018;10.144;2023-01-08T08:20:26;6.13;;;4.00;;
75885;SDS011;64561;44.018;10.144;2023-01-08T08:23:06;12.23;;;3.65;;
75885;SDS011;64561;44.018;10.144;2023-01-08T08:25:35;7.18;;;3.92;;
75885;SDS011;64561;44.018;10.144;2023-01-08T08:28:03;9.73;;;4.00;;
75885;SDS011;64561;44.018;10.144;2023-01-08T08:30:32;6.95;;;3.30;;
75885;SDS011;64561;44.018;10.144;2023-01-08T08:33:01;5.05;;;3.20;;
75885;SDS011;64561;44.018;10.144;2023-01-08T08:35:30;5.97;;;3.42;;
75885;SDS011;64561;44.018;10.144;2023-01-08T08:37:58;5.13;;;3.10;;
75885;SDS011;64561;44.018;10.144;2023-01-08T08:40:26;6.00;;;3.20;;
75885;SDS011;64561;44.018;10.144;2023-01-08T08:42:54;5.60;;;3.45;;
75885;SDS011;64561;44.018;10.144;2023-01-08T08:45:21;5.80;;;3.00;;
75885;SDS011;64561;44.018;10.144;2023-01-08T08:47:49;4.75;;;3.10;;
75885;SDS011;64561;44.018;10.144;2023-01-08T08:50:16;7.57;;;3.70;;
75885;SDS011;64561;44.018;10.144;2023-01-08T08:52:44;7.65;;;3.60;;
75885;SDS011;64561;44.018;10.144;2023-01-08T08:55:11;8.52;;;3.97;;
75885;SDS011;64561;44.018;10.144;2023-01-08T08:57:42;4.90;;;3.60;;
75885;SDS011;64561;44.018;10.144;2023-01-08T09:00:10;6.32;;;3.65;;
75885;SDS011;64561;44.018;10.144;2023-01-08T09:02:37;6.20;;;3.50;;
75885;SDS011;64561;44.018;10.144;2023-01-08T09:05:05;6.18;;;3.28;;
75885;SDS011;64561;44.018;10.144;2023-01-08T09:07:32;5.93;;;3.67;;
75885;SDS011;64561;44.018;10.144;2023-01-08T09:09:59;12.90;;;3.72;;
75885;SDS011;64561;44.018;10.144;2023-01-08T09:12:25;6.90;;;3.50;;
75885;SDS011;64561;44.018;10.144;2023-01-08T09:14:58;5.65;;;3.55;;
75885;SDS011;64561;44.018;10.144;2023-01-08T09:17:35;6.30;;;3.40;;
75885;SDS011;64561;44.018;10.144;2023-01-08T09:20:03;7.03;;;3.28;;
75885;SDS011;64561;44.018;10.144;2023-01-08T09:22:30;8.80;;;3.05;;
75885;SDS011;64561;44.018;10.144;2023-01-08T09:24:57;4.88;;;3.42;;
75885;SDS011;64561;44.018;10.144;2023-01-08T09:27:24;4.68;;;3.10;;
75885;SDS011;64561;44.018;10.144;2023-01-08T09:29:51;7.68;;;2.92;;
75885;SDS011;64561;44.018;10.144;2023-01-08T09:32:18;7.38;;;3.35;;
75885;SDS011;64561;44.018;10.144;2023-01-08T09:34:45;6.07;;;3.35;;
75885;SDS011;64561;44.018;10.144;2023-01-08T09:37:12;8.55;;;3.63;;
75885;SDS011;64561;44.018;10.144;2023-01-08T09:39:39;5.60;;;3.47;;
75885;SDS011;64561;44.018;10.144;2023-01-08T09:42:13;8.35;;;3.67;;
75885;SDS011;64561;44.018;10.144;2023-01-08T09:44:42;5.65;;;3.33;;
75885;SDS011;64561;44.018;10.144;2023-01-08T09:47:18;7.20;;;3.75;;
75885;SDS011;64561;44.018;10.144;2023-01-08T09:49:50;8.57;;;3.92;;
75885;SDS011;64561;44.018;10.144;2023-01-08T09:52:22;6.97;;;3.97;;
75885;SDS011;64561;44.018;10.144;2023-01-08T09:54:49;5.97;;;3.20;;
75885;SDS011;64561;44.018;10.144;2023-01-08T09:57:17;10.10;;;3.47;;
75885;SDS011;64561;44.018;10.144;2023-01-08T09:59:46;5.05;;;2.92;;
75885;SDS011;64561;44.018;10.144;2023-01-08T10:02:15;3.72;;;3.13;;
75885;SDS011;64561;44.018;10.144;2023-01-08T10:04:48;4.75;;;2.90;;
75885;SDS011;64561;44.018;10.144;2023-01-08T10:07:20;7.28;;;3.83;;
75885;SDS011;64561;44.018;10.144;2023-01-08T10:09:50;8.45;;;4.57;;
75885;SDS011;64561;44.018;10.144;2023-01-08T10:12:26;9.82;;;5.38;;
75885;SDS011;64561;44.018;10.144;2023-01-08T10:14:56;9.55;;;4.45;;
75885;SDS011;64561;44.018;10.144;2023-01-08T10:17:30;12.02;;;5.13;;
75885;SDS011;64561;44.018;10.144;2023-01-08T10:20:10;7.40;;;3.70;;
75885;SDS011;64561;44.018;10.144;2023-01-08T10:22:49;10.02;;;4.40;;
75885;SDS011;64561;44.018;10.144;2023-01-08T10:25:21;10.23;;;5.03;;
75885;SDS011;64561;44.018;10.144;2023-01-08T10:27:56;7.18;;;4.80;;
75885;SDS011;64561;44.018;10.144;2023-01-08T10:30:34;8.93;;;4.88;;
75885;SDS011;64561;44.018;10.144;2023-01-08T10:33:09;8.90;;;4.90;;
75885;SDS011;64561;44.018;10.144;2023-01-08T10:35:41;6.25;;;3.03;;
75885;SDS011;64561;44.018;10.144;2023-01-08T10:40:56;7.63;;;4.45;;
75885;SDS011;64561;44.018;10.144;2023-01-08T10:43:28;12.18;;;8.07;;
75885;SDS011;64561;44.018;10.144;2023-01-08T10:46:03;14.20;;;6.13;;
75885;SDS011;64561;44.018;10.144;2023-01-08T10:48:35;10.13;;;6.32;;
75885;SDS011;64561;44.018;10.144;2023-01-08T10:51:12;7.32;;;4.18;;
75885;SDS011;64561;44.018;10.144;2023-01-08T10:53:44;8.93;;;4.32;;
75885;SDS011;64561;44.018;10.144;2023-01-08T10:56:20;13.32;;;7.50;;
75885;SDS011;64561;44.018;10.144;2023-01-08T10:58:51;9.68;;;4.90;;
75885;SDS011;64561;44.018;10.144;2023-01-08T11:03:52;8.80;;;4.90;;
75885;SDS011;64561;44.018;10.144;2023-01-08T11:06:22;10.35;;;5.43;;
75885;SDS011;64561;44.018;10.144;2023-01-08T11:09:00;10.60;;;6.40;;
75885;SDS011;64561;44.018;10.144;2023-01-08T11:11:43;9.55;;;5.82;;
75885;SDS011;64561;44.018;10.144;2023-01-08T11:14:32;12.77;;;5.55;;
75885;SDS011;64561;44.018;10.144;2023-01-08T11:17:09;15.13;;;6.65;;
75885;SDS011;64561;44.018;10.144;2023-01-08T11:19:38;10.38;;;5.90;;
75885;SDS011;64561;44.018;10.144;2023-01-08T11:22:16;9.80;;;6.47;;
75885;SDS011;64561;44.018;10.144;2023-01-08T11:24:45;10.48;;;5.07;;
75885;SDS011;64561;44.018;10.144;2023-01-08T11:27:15;11.60;;;5.40;;
75885;SDS011;64561;44.018;10.144;2023-01-08T11:35:19;7.22;;;3.30;;
75885;SDS011;64561;44.018;10.144;2023-01-08T11:37:54;11.25;;;4.90;;
75885;SDS011;64561;44.018;10.144;2023-01-08T11:43:41;8.52;;;5.55;;
75885;SDS011;64561;44.018;10.144;2023-01-08T11:49:43;10.85;;;5.15;;
75885;SDS011;64561;44.018;10.144;2023-01-08T12:03:24;12.13;;;6.10;;
75885;SDS011;64561;44.018;10.144;2023-01-08T12:09:19;7.35;;;4.72;;
75885;SDS011;64561;44.018;10.144;2023-01-08T12:20:47;13.57;;;6.25;;
75885;SDS011;64561;44.018;10.144;2023-01-08T12:35:14;3.47;;;2.35;;
75885;SDS011;64561;44.018;10.144;2023-01-08T12:38:02;9.98;;;3.80;;
75885;SDS011;64561;44.018;10.144;2023-01-08T12:40:34;6.47;;;3.78;;
75885;SDS011;64561;44.018;10.144;2023-01-08T12:43:06;5.93;;;2.88;;
75885;SDS011;64561;44.018;10.144;2023-01-08T12:45:39;6.22;;;3.10;;
75885;SDS011;64561;44.018;10.144;2023-01-08T12:48:13;6.38;;;3.50;;
75885;SDS011;64561;44.018;10.144;2023-01-08T12:53:20;6.40;;;3.30;;
75885;SDS011;64561;44.018;10.144;2023-01-08T13:04:02;7.78;;;4.07;;
75885;SDS011;64561;44.018;10.144;2023-01-08T13:06:30;5.28;;;3.45;;
75885;SDS011;64561;44.018;10.144;2023-01-08T13:08:57;6.22;;;3.30;;
75885;SDS011;64561;44.018;10.144;2023-01-08T13:13:59;12.40;;;5.22;;
75885;SDS011;64561;44.018;10.144;2023-01-08T13:16:27;13.80;;;6.13;;
75885;SDS011;64561;44.018;10.144;2023-01-08T13:18:55;9.80;;;4.97;;
75885;SDS011;64561;44.018;10.144;2023-01-08T13:21:35;12.10;;;5.90;;
75885;SDS011;64561;44.018;10.144;2023-01-08T13:27:08;12.15;;;5.80;;
75885;SDS011;64561;44.018;10.144;2023-01-08T13:37:43;10.60;;;4.05;;
75885;SDS011;64561;44.018;10.144;2023-01-08T13:43:01;8.95;;;5.85;;
75885;SDS011;64561;44.018;10.144;2023-01-08T13:45:31;13.60;;;6.25;;
75885;SDS011;64561;44.018;10.144;2023-01-08T13:47:59;11.88;;;6.72;;
75885;SDS011;64561;44.018;10.144;2023-01-08T13:50:25;10.13;;;6.35;;
75885;SDS011;64561;44.018;10.144;2023-01-08T13:52:57;14.43;;;6.57;;
75885;SDS011;64561;44.018;10.144;2023-01-08T13:55:30;10.60;;;5.32;;
75885;SDS011;64561;44.018;10.144;2023-01-08T13:58:20;9.00;;;5.10;;
75885;SDS011;64561;44.018;10.144;2023-01-08T14:00:52;12.63;;;8.05;;
75885;SDS011;64561;44.018;10.144;2023-01-08T14:03:24;20.20;;;10.43;;
75885;SDS011;64561;44.018;10.144;2023-01-08T14:06:06;11.18;;;6.30;;
75885;SDS011;64561;44.018;10.144;2023-01-08T14:08:55;9.05;;;5.18;;
75885;SDS011;64561;44.018;10.144;2023-01-08T14:11:28;15.70;;;8.10;;
75885;SDS011;64561;44.018;10.144;2023-01-08T14:13:58;23.08;;;13.48;;
75885;SDS011;64561;44.018;10.144;2023-01-08T14:16:25;22.05;;;11.32;;
75885;SDS011;64561;44.018;10.144;2023-01-08T14:18:52;22.85;;;14.73;;
75885;SDS011;64561;44.018;10.144;2023-01-08T14:21:25;18.73;;;12.57;;
75885;SDS011;64561;44.018;10.144;2023-01-08T14:23:53;21.30;;;13.05;;
75885;SDS011;64561;44.018;10.144;2023-01-08T14:26:28;23.85;;;14.95;;
75885;SDS011;64561;44.018;10.144;2023-01-08T14:29:15;19.40;;;11.27;;
75885;SDS011;64561;44.018;10.144;2023-01-08T14:31:47;12.18;;;8.63;;
75885;SDS011;64561;44.018;10.144;2023-01-08T14:36:45;10.55;;;6.82;;
75885;SDS011;64561;44.018;10.144;2023-01-08T14:39:22;14.30;;;7.78;;
75885;SDS011;64561;44.018;10.144;2023-01-08T14:42:00;28.95;;;10.93;;
75885;SDS011;64561;44.018;10.144;2023-01-08T14:45:06;20.23;;;12.00;;
75885;SDS011;64561;44.018;10.144;2023-01-08T14:47:52;27.73;;;17.55;;
75885;SDS011;64561;44.018;10.144;2023-01-08T14:53:03;19.98;;;12.15;;
75885;SDS011;64561;44.018;10.144;2023-01-08T14:55:31;28.63;;;14.77;;
75885;SDS011;64561;44.018;10.144;2023-01-08T14:58:01;17.27;;;10.48;;
75885;SDS011;64561;44.018;10.144;2023-01-08T15:00:28;12.43;;;9.45;;
75885;SDS011;64561;44.018;10.144;2023-01-08T15:02:57;14.07;;;9.77;;
75885;SDS011;64561;44.018;10.144;2023-01-08T15:05:28;14.40;;;11.15;;
75885;SDS011;64561;44.018;10.144;2023-01-08T15:08:01;16.30;;;11.60;;
75885;SDS011;64561;44.018;10.144;2023-01-08T15:10:31;76.47;;;41.17;;
75885;SDS011;64561;44.018;10.144;2023-01-08T15:12:59;31.65;;;16.33;;
75885;SDS011;64561;44.018;10.144;2023-01-08T15:15:29;19.50;;;11.00;;
75885;SDS011;64561;44.018;10.144;2023-01-08T15:17:57;13.02;;;8.00;;
75885;SDS011;64561;44.018;10.144;2023-01-08T15:20:28;15.07;;;6.72;;
75885;SDS011;64561;44.018;10.144;2023-01-08T15:22:57;33.75;;;16.13;;
75885;SDS011;64561;44.018;10.144;2023-01-08T15:25:26;21.55;;;13.85;;
75885;SDS011;64561;44.018;10.144;2023-01-08T15:28:01;73.72;;;53.55;;
75885;SDS011;64561;44.018;10.144;2023-01-08T15:30:36;36.88;;;27.90;;
75885;SDS011;64561;44.018;10.144;2023-01-08T15:33:16;22.90;;;13.45;;
75885;SDS011;64561;44.018;10.144;2023-01-08T15:35:48;17.13;;;10.55;;
75885;SDS011;64561;44.018;10.144;2023-01-08T15:38:16;15.15;;;10.00;;
75885;SDS011;64561;44.018;10.144;2023-01-08T15:40:46;16.73;;;12.30;;
75885;SDS011;64561;44.018;10.144;2023-01-08T15:43:16;21.08;;;14.32;;
75885;SDS011;64561;44.018;10.144;2023-01-08T15:45:45;20.33;;;14.18;;
75885;SDS011;64561;44.018;10.144;2023-01-08T15:48:14;21.38;;;14.20;;
75885;SDS011;64561;44.018;10.144;2023-01-08T15:50:42;13.52;;;8.05;;
75885;SDS011;64561;44.018;10.144;2023-01-08T15:53:16;20.30;;;6.10;;
75885;SDS011;64561;44.018;10.144;2023-01-08T15:55:50;24.92;;;12.60;;
75885;SDS011;64561;44.018;10.144;2023-01-08T15:58:17;16.38;;;7.57;;
75885;SDS011;64561;44.018;10.144;2023-01-08T16:00:45;17.40;;;9.82;;
75885;SDS011;64561;44.018;10.144;2023-01-08T16:03:12;29.15;;;21.92;;
75885;SDS011;64561;44.018;10.144;2023-01-08T16:05:40;37.72;;;23.63;;
75885;SDS011;64561;44.018;10.144;2023-01-08T16:08:08;36.20;;;23.25;;
75885;SDS011;64561;44.018;10.144;2023-01-08T16:10:36;29.90;;;16.63;;
75885;SDS011;64561;44.018;10.144;2023-01-08T16:13:10;27.13;;;15.98;;
75885;SDS011;64561;44.018;10.144;2023-01-08T16:15:38;25.98;;;15.98;;
75885;SDS011;64561;44.018;10.144;2023-01-08T16:18:14;18.98;;;13.38;;
75885;SDS011;64561;44.018;10.144;2023-01-08T16:20:41;20.60;;;10.98;;
75885;SDS011;64561;44.018;10.144;2023-01-08T16:23:08;18.80;;;10.57;;
75885;SDS011;64561;44.018;10.144;2023-01-08T16:25:37;28.60;;;14.70;;
75885;SDS011;64561;44.018;10.144;2023-01-08T16:28:04;56.42;;;28.05;;
75885;SDS011;64561;44.018;10.144;2023-01-08T16:30:35;21.85;;;12.45;;
75885;SDS011;64561;44.018;10.144;2023-01-08T16:33:08;22.70;;;11.32;;
75885;SDS011;64561;44.018;10.144;2023-01-08T16:35:35;16.33;;;8.90;;